Terminal Aerodrome Forecast
Issued by NWS

Home | Current Version | Previous Version | Text Only | Print | Product List | Glossary On
Versions: 1 2 3 4 5 6 7 8 9 10 11 12 13 14 15 16 17
000
FTUS46 KSTO 191126
TAFSMF
TAF
KSMF 191126Z 1912/2012 12008KT P6SM -RA OVC050
     FM191600 16012KT 6SM -RA OVC025
     FM191700 16015G25KT P6SM -RA OVC025
     FM200400 15018KT 4SM -RA OVC015=

USA.gov is the U.S. government's official web portal to all federal, state and local government web resources and services.